Latest Weather Observations for Gold Coast Seaway

IDQ60801

Issued at 8:32 pm EST Friday 26 February 2021 (issued every 10 minutes, with the page automatically refreshed every 10 minutes)

About weather observations | Map of weather stations | Latest weather observations for QLD | Other Formats
Station Details ID: 040764 Name: GOLD COAST SEAWAY Lat: -27.94 Lon: 153.43 Height: 2.98 m
Data from the previous 72 hours. | See also: Recent months at Gold Coast Seaway
Date/Time
EST
Temp
°C
App
Temp
°C
Dew
Point
°C
Rel
Hum
%
Delta-T
°C
Wind Press
QNH
hPa
Press
MSL
hPa
Rain since
9am
mm
Dir  Spd
km/h
Gust
km/h
Spd
kts
Gust
kts
26/08:30pm 25.8 27.4 20.8 74 3.3 N 13 19 7 10 1011.8 1011.8 0.0
26/08:00pm 25.9 27.2 20.9 74 3.3 NNE 15 19 8 10 1011.3 1011.3 0.0
26/07:30pm 26.1 27.5 21.1 74 3.3 NNE 15 22 8 12 1011.1 1011.1 0.0
26/07:00pm 26.1 26.7 21.1 74 3.3 NNE 19 22 10 12 1010.5 1010.5 0.0
26/06:30pm 26.3 26.8 21.1 73 3.4 NNE 20 24 11 13 1010.0 1010.0 0.0
26/06:00pm 26.9 27.4 21.2 71 3.8 NNE 20 26 11 14 1009.8 1009.8 0.0
26/05:30pm 27.7 28.0 21.5 69 4.1 NE 22 28 12 15 1009.2 1009.2 0.0
26/05:00pm 27.6 27.5 21.4 69 4.1 NE 24 28 13 15 1008.9 1008.9 0.0
26/04:30pm 28.3 28.1 21.3 65 4.7 NE 24 28 13 15 1008.7 1008.7 0.0
26/04:00pm 28.7 28.7 21.7 66 4.7 NE 24 30 13 16 1008.6 1008.6 0.0
26/03:30pm 28.9 28.6 21.1 62 5.2 NNE 24 32 13 17 1008.6 1008.6 0.0
26/03:00pm 29.6 29.9 22.3 65 5.0 NNE 24 30 13 16 1008.6 1008.6 0.0
26/02:30pm 29.7 30.0 22.2 64 5.1 NNE 24 32 13 17 1008.9 1008.9 0.0
26/02:00pm 29.4 29.5 21.9 64 5.1 NE 24 30 13 16 1009.2 1009.2 0.0
26/01:30pm 29.7 30.0 22.2 64 5.1 NE 24 30 13 16 1009.6 1009.6 0.0
26/01:00pm 29.4 29.6 22.1 65 4.9 NE 24 28 13 15 1009.8 1009.8 0.0
26/12:30pm 29.6 29.9 22.3 65 4.9 NE 24 28 13 15 1010.0 1010.0 0.0
26/12:00pm 28.7 29.6 22.0 67 4.5 NE 20 26 11 14 1010.3 1010.3 0.0
26/11:30am 29.9 32.0 23.1 67 4.7 NE 17 20 9 11 1010.4 1010.4 0.0
26/11:00am 28.9 30.3 21.9 66 4.7 NE 17 22 9 12 1010.6 1010.6 0.0
26/10:30am 28.8 31.1 21.3 64 5.0 NNE 11 15 6 8 1010.7 1010.7 0.0
26/10:00am 28.8 30.8 20.0 59 5.8 N 9 19 5 10 1011.1 1011.1 0.0
26/09:30am 28.2 30.1 19.7 60 5.5 NNW 9 15 5 8 1011.2 1011.2 0.0
26/09:00am 27.5 29.4 20.6 66 4.5 NW 11 19 6 10 1011.3 1011.3 0.0
26/08:30am 26.6 28.3 20.2 68 4.2 NW 11 17 6 9 1011.3 1011.3 0.0
26/08:00am 26.4 28.4 20.7 71 3.7 WNW 11 15 6 8 1011.3 1011.3 0.0
26/07:30am 25.6 27.8 20.4 73 3.4 WNW 9 13 5 7 1011.1 1011.1 0.0
26/07:00am 25.0 27.3 20.7 77 2.8 WNW 9 11 5 6 1010.8 1010.8 0.0
26/06:30am 24.1 26.9 20.4 80 2.4 W 6 9 3 5 1010.5 1010.5 0.0
26/06:00am 23.7 26.4 20.6 83 2.0 NW 7 9 4 5 1010.2 1010.2 0.0
26/05:30am 23.8 26.4 20.5 82 2.1 WNW 7 11 4 6 1010.2 1010.2 0.0
26/05:00am 23.7 26.3 20.4 82 2.1 WNW 7 11 4 6 1010.1 1010.1 0.0
26/04:30am 23.5 26.5 20.0 81 2.3 W 4 7 2 4 1010.1 1010.1 0.0
26/04:00am 23.8 26.4 20.1 80 2.4 W 6 9 3 5 1010.2 1010.2 0.0
26/03:30am 24.2 27.0 20.5 80 2.4 W 6 9 3 5 1010.4 1010.4 0.0
26/03:00am 24.5 27.3 20.4 78 2.7 W 6 9 3 5 1010.3 1010.3 0.0
26/02:30am 25.0 27.6 20.5 76 2.9 NNW 7 11 4 6 1010.6 1010.6 0.0
26/02:00am 25.3 26.7 20.3 74 3.3 NNE 13 17 7 9 1011.0 1011.0 0.0
26/01:30am 25.3 26.0 20.5 75 3.1 NNE 17 22 9 12 1011.2 1011.2 0.0
26/01:00am 25.3 27.1 20.3 74 3.3 NNE 11 17 6 9 1011.3 1011.3 0.0
26/12:30am 25.3 26.3 20.3 74 3.3 NNE 15 20 8 11 1011.5 1011.5 0.0
26/12:00am 25.4 26.6 20.6 75 3.1 NNE 15 20 8 11 1011.9 1011.9 0.0
 
Date/Time
EST
Temp
°C
App
Temp
°C
Dew
Point
°C
Rel
Hum
%
Delta-T
°C
Wind Press
QNH
hPa
Press
MSL
hPa
Rain since
9am
mm
Dir  Spd
km/h
Gust
km/h
Spd
kts
Gust
kts
25/11:30pm 25.0 25.5 20.0 74 3.2 NNE 17 22 9 12 1012.1 1012.1 0.0
25/11:00pm 25.2 25.9 20.5 75 3.1 NE 17 20 9 11 1012.2 1012.2 0.0
25/10:30pm 25.2 25.8 20.2 74 3.3 NE 17 20 9 11 1012.2 1012.2 0.0
25/10:00pm 25.4 26.6 20.6 75 3.1 NE 15 19 8 10 1012.3 1012.3 0.0
25/09:30pm 25.4 26.1 20.4 74 3.3 NE 17 19 9 10 1012.4 1012.4 0.0
25/09:00pm 25.6 26.1 20.8 75 3.2 NE 19 22 10 12 1012.2 1012.2 0.0
25/08:30pm 25.5 25.8 20.5 74 3.3 ENE 19 22 10 12 1012.0 1012.0 0.0
25/08:00pm 25.6 26.0 20.6 74 3.3 NE 19 24 10 13 1011.8 1011.8 0.0
25/07:30pm 25.5 25.8 20.5 74 3.3 NE 19 24 10 13 1011.7 1011.7 0.0
25/07:00pm 25.5 26.3 20.7 75 3.1 NNE 17 22 9 12 1011.6 1011.6 0.0
25/06:30pm 25.5 26.2 20.5 74 3.3 NE 17 22 9 12 1011.1 1011.1 0.0
25/06:00pm 25.8 26.1 20.4 72 3.5 NE 19 24 10 13 1010.7 1010.7 0.0
25/05:30pm 26.0 26.3 20.3 71 3.7 NE 19 22 10 12 1010.4 1010.4 0.0
25/05:00pm 26.7 28.0 20.8 70 3.9 NE 15 19 8 10 1010.4 1010.4 0.0
25/04:30pm 27.6 29.4 21.2 68 4.3 NNE 13 17 7 9 1010.3 1010.3 0.0
25/04:00pm 27.7 28.8 21.3 68 4.3 NNE 17 20 9 11 1010.3 1010.3 0.0
25/03:30pm 27.4 28.2 21.4 70 4.0 NE 19 22 10 12 1010.4 1010.4 0.0
25/03:00pm 27.7 27.4 20.3 64 4.9 NE 22 26 12 14 1010.7 1010.7 0.0
25/02:30pm 27.4 27.7 20.7 67 4.4 NE 20 24 11 13 1011.2 1011.2 0.0
25/02:00pm 26.9 27.1 20.5 68 4.2 NE 20 26 11 14 1011.4 1011.4 0.0
25/01:30pm 27.0 27.1 20.3 66 4.4 NE 20 22 11 12 1011.7 1011.7 0.0
25/01:00pm 26.8 27.0 20.6 69 4.1 NE 20 24 11 13 1012.1 1012.1 0.0
25/12:30pm 27.5 28.1 21.3 69 4.1 ENE 20 24 11 13 1012.4 1012.4 0.0
25/12:00pm 26.7 27.3 21.0 71 3.8 ENE 19 22 10 12 1012.7 1012.7 0.0
25/11:30am 27.8 28.6 21.3 67 4.3 ENE 19 22 10 12 1013.0 1013.0 0.0
25/11:00am 27.1 27.6 20.9 69 4.1 E 19 22 10 12 1013.2 1013.2 0.0
25/10:30am 27.7 28.7 21.7 70 4.0 E 19 22 10 12 1013.6 1013.6 0.0
25/10:00am 27.2 28.4 21.5 71 3.8 E 17 22 9 12 1013.8 1013.8 0.0
25/09:30am 26.5 26.8 20.8 71 3.8 E 20 22 11 12 1013.8 1013.8 0.0
25/09:00am 26.3 26.9 21.3 74 3.3 E 20 24 11 13 1014.0 1014.0 5.6
25/08:30am 26.0 25.5 20.8 73 3.4 E 24 28 13 15 1013.8 1013.8 5.6
25/08:00am 25.5 25.3 20.5 74 3.3 E 22 28 12 15 1013.6 1013.6 5.6
25/07:30am 25.4 25.4 20.9 76 3.0 ESE 22 26 12 14 1013.3 1013.3 5.6
25/07:00am 25.4 24.6 20.9 76 3.0 ESE 26 30 14 16 1013.1 1013.1 5.6
25/06:30am 25.0 25.1 21.1 79 2.6 E 22 26 12 14 1013.0 1013.0 5.6
25/06:00am 24.8 24.3 20.7 78 2.7 E 24 28 13 15 1012.8 1012.8 5.6
25/05:30am 24.7 24.1 20.6 78 2.7 E 24 28 13 15 1012.6 1012.6 5.6
25/05:00am 24.7 24.3 21.0 80 2.4 E 24 30 13 16 1012.3 1012.3 5.6
25/04:30am 24.6 24.2 20.9 80 2.4 E 24 28 13 15 1012.1 1012.1 5.6
25/04:00am 24.4 24.1 21.1 82 2.2 E 24 28 13 15 1012.1 1012.1 5.6
25/03:30am 24.0 26.3 21.3 85 1.8 ESE 11 24 6 13 1012.1 1012.1 5.0
25/03:00am 24.8 25.2 20.9 79 2.6 E 20 30 11 16 1012.2 1012.2 0.0
25/02:30am 24.6 23.8 20.1 76 2.9 E 24 30 13 16 1012.4 1012.4 0.0
25/02:00am 24.9 24.9 20.2 75 3.1 E 20 28 11 15 1012.6 1012.6 0.0
25/01:30am 24.9 24.9 20.2 75 3.1 ENE 20 24 11 13 1012.9 1012.9 0.0
25/01:00am 24.9 25.0 19.9 74 3.2 ENE 19 24 10 13 1013.4 1013.4 0.0
25/12:30am 24.9 24.9 20.2 75 3.1 ENE 20 24 11 13 1013.7 1013.7 0.0
25/12:00am 24.8 24.5 19.6 73 3.3 E 20 26 11 14 1013.8 1013.8 0.0
 
Date/Time
EST
Temp
°C
App
Temp
°C
Dew
Point
°C
Rel
Hum
%
Delta-T
°C
Wind Press
QNH
hPa
Press
MSL
hPa
Rain since
9am
mm
Dir  Spd
km/h
Gust
km/h
Spd
kts
Gust
kts
24/11:30pm 25.0 24.4 19.8 73 3.4 E 22 26 12 14 1014.5 1014.5 0.0
24/11:00pm 25.1 24.8 20.4 75 3.1 E 22 28 12 15 1014.6 1014.6 0.0
24/10:30pm 25.2 25.1 20.7 76 2.9 ENE 22 28 12 15 1014.4 1014.4 0.0
24/10:00pm 25.1 24.5 20.6 76 2.9 E 24 28 13 15 1014.2 1014.2 0.0
24/09:30pm 25.0 23.8 20.0 74 3.2 E 26 33 14 18 1014.2 1014.2 0.0
24/09:00pm 25.0 23.0 20.0 74 3.2 E 30 35 16 19 1013.9 1013.9 0.0
24/08:30pm 25.2 23.8 20.5 75 3.1 E 28 35 15 19 1013.7 1013.7 0.0
24/08:00pm 25.3 24.3 21.2 78 2.7 E 28 35 15 19 1013.6 1013.6 0.0
24/07:30pm 25.2 23.9 20.7 76 2.9 E 28 35 15 19 1013.4 1013.4 0.0
24/07:00pm 25.3 24.2 21.0 77 2.8 ENE 28 35 15 19 1013.2 1013.2 0.0
24/06:30pm 25.3 23.3 21.2 78 2.7 E 33 41 18 22 1013.0 1013.0 0.0
24/06:00pm 25.3 23.9 21.2 78 2.7 E 30 39 16 21 1012.5 1012.5 0.0
24/05:30pm 25.2 23.4 21.5 80 2.5 E 33 39 18 21 1012.4 1012.4 0.0
24/05:18pm 25.1 23.4 21.4 80 2.4 E 32 39 17 21 1012.2 1012.2 0.0
24/05:00pm 25.2 26.9 21.7 81 2.3 ESE 15 20 8 11 1012.2 1012.2 0.0
24/04:30pm 25.5 26.7 21.4 78 2.7 ENE 17 24 9 13 1012.4 1012.4 0.0
24/04:00pm 24.4 23.1 19.9 76 2.9 ENE 26 32 14 17 1012.3 1012.3 0.0
24/03:30pm 24.2 21.9 21.3 84 1.9 ESE 35 43 19 23 1012.8 1012.8 0.0
24/03:24pm 24.1 21.2 20.8 82 2.2 ESE 37 43 20 23 1012.8 1012.8 0.0
24/03:00pm 26.2 25.5 21.8 77 2.9 ENE 28 32 15 17 1012.9 1012.9 0.0
24/02:30pm 27.3 27.9 21.1 69 4.1 E 19 26 10 14 1012.8 1012.8 0.0
24/02:00pm 27.6 29.3 21.6 70 4.0 ESE 15 19 8 10 1013.0 1013.0 0.0
24/01:30pm 27.7 29.2 21.3 68 4.3 ESE 15 19 8 10 1013.5 1013.5 0.0
24/01:00pm 27.4 28.2 21.4 70 4.0 ESE 19 20 10 11 1013.5 1013.5 0.0
24/12:30pm 27.0 27.6 21.3 71 3.8 SE 20 22 11 12 1013.8 1013.8 0.0
24/12:00pm 27.3 28.2 21.6 71 3.8 SE 19 22 10 12 1014.2 1014.2 0.0
24/11:30am 27.6 29.3 22.3 73 3.6 SE 17 20 9 11 1014.4 1014.4 0.0
24/11:00am 26.8 28.2 21.8 74 3.3 SE 17 22 9 12 1014.5 1014.5 0.0
24/10:30am 27.0 28.7 21.7 73 3.5 SSE 15 19 8 10 1014.7 1014.7 0.0
24/10:00am 26.6 28.6 21.6 74 3.3 SSE 13 19 7 10 1014.9 1014.9 0.0
24/09:30am 25.5 26.9 21.0 76 3.0 SSE 15 24 8 13 1014.9 1014.9 0.0
24/09:00am 23.9 26.1 20.4 81 2.3 S 9 15 5 8 1014.8 1014.8 11.2
24/08:30am 22.8 25.0 19.6 82 2.0 WSW 7 11 4 6 1014.7 1014.7 11.2
24/08:00am 22.8 25.6 19.6 82 2.0 SW 4 7 2 4 1014.6 1014.6 11.2
24/07:30am 22.5 24.7 19.5 83 1.9 SSW 7 13 4 7 1013.9 1013.9 11.2
24/07:00am 22.8 24.0 19.8 83 1.9 SSE 13 22 7 12 1014.0 1014.0 11.2
24/06:30am 22.7 23.4 19.7 83 1.9 S 15 22 8 12 1013.8 1013.8 11.2
24/06:00am 21.9 22.7 19.1 84 1.8 S 13 19 7 10 1013.2 1013.2 11.2
24/05:30am 21.5 23.0 18.9 85 1.6 S 9 15 5 8 1013.2 1013.2 11.2
24/05:00am 21.0 22.8 18.4 85 1.6 SSW 6 9 3 5 1012.8 1012.8 11.2
24/04:30am 20.9 22.3 18.7 87 1.4 SSW 9 11 5 6 1012.4 1012.4 11.2
24/04:00am 20.5 21.6 18.1 86 1.5 SW 9 13 5 7 1012.0 1012.0 11.2
24/03:30am 20.6 21.0 18.2 86 1.5 SW 13 17 7 9 1011.6 1011.6 11.2
24/03:00am 20.6 21.4 18.2 86 1.5 SW 11 15 6 8 1011.4 1011.4 11.2
24/02:30am 20.6 21.5 18.4 87 1.4 SW 11 13 6 7 1011.7 1011.7 11.2
24/02:00am 20.5 21.0 18.3 87 1.4 SW 13 17 7 9 1011.8 1011.8 11.2
24/01:30am 20.8 21.7 18.4 86 1.5 WSW 11 17 6 9 1012.2 1012.2 11.0
24/01:00am 21.0 21.6 18.6 86 1.5 SW 13 17 7 9 1012.4 1012.4 11.0
24/12:30am 20.8 21.0 18.6 87 1.4 SW 15 20 8 11 1012.7 1012.7 11.0
24/12:00am 20.8 21.6 18.2 85 1.6 SW 11 17 6 9 1013.0 1013.0 11.0
 
Date/Time
EST
Temp
°C
App
Temp
°C
Dew
Point
°C
Rel
Hum
%
Delta-T
°C
Wind Press
QNH
hPa
Press
MSL
hPa
Rain since
9am
mm
Dir  Spd
km/h
Gust
km/h
Spd
kts
Gust
kts
23/11:30pm 21.1 21.9 18.1 83 1.9 W 11 17 6 9 1013.2 1013.2 11.0
23/11:00pm 21.0 22.5 18.8 87 1.4 WSW 9 13 5 7 1013.3 1013.3 11.0
23/10:30pm 21.1 23.0 18.9 87 1.4 WSW 7 15 4 8 1013.0 1013.0 11.0
23/10:00pm 21.1 22.2 18.9 87 1.4 WSW 11 15 6 8 1012.4 1012.4 11.0
23/09:30pm 21.3 22.1 19.0 87 1.5 NW 13 17 7 9 1011.6 1011.6 10.8
23/09:00pm 20.5 21.0 18.4 88 1.3 W 13 22 7 12 1012.4 1012.4 10.8

Other formats

Comma delimited format used in spreadsheet applications
http://www.bom.gov.au/fwo/IDQ60801/IDQ60801.94580.axf

JavaScript Object Notation format (JSON) in row-major order
http://www.bom.gov.au/fwo/IDQ60801/IDQ60801.94580.json

Data quality

Most of these data are generated automatically and are frequently updated. Quality checks on data are not normally performed. It is possible for incorrect values to appear. Refer to information at About Latest Weather Observations and please check the disclaimer before using these data.